Saturday, August 02, 2014
04:35 UTC
  |  Log In   |  Register Free
Airport Search:

Ormond Beach Municipal Airport
(KOMN)

Ormond Beach Municipal Airport Diagram
No Airport Diagram Available

FAA data valid effective July 24, 2014 until September 18, 2014 (unless otherwise noted).

 
 
 
 
 
 
 
 
 
 
 
 
 
 

Current Aviation Weather for Ormond Beach Municipal Airport (KOMN)

The most recent METAR observation for KOMN was updated at: 1750 UTC
METAR Summary (Translated METAR)
KOMN
281750Z 24010G17KT 7SM SCT035 33/24 A2999
KDAB
(7.8 nm SE from KOMN)
281753Z 23011KT 10SM FEW035 FEW140 SCT250 33/24 A3000 RMK AO2 SLP156 T03280244 10333 20261 58013
TAF Summary (Translated TAF)
KDAB
(7.8 nm SE from KOMN)
011720Z 0118/0218 11008KT P6SM VCTS BKN035CB TEMPO 0119/0122 3SM TSRA BKN020CB OVC040 FM020000 14006KT P6SM SCT040 BKN100 OVC120 FM021400 VRB04KT P6SM FEW030 FEW150 SCT250
  Airport Weather Conditions for KOMN

 Current Weather at OMN
84° F
Clear
Southeast winds at 11.5 mph
OMN NOAA Radar

Pressure: 29.95 in
Humidity: 74%
Wind: Southeast at 11.5 MPH (10 KT)
Dew Point: 75.2°F
Visibility: 7.00 mi


Airport Weather Forecast for KOMN

Translated METAR and TAF for KOMN
Translated METAR for KOMN (0429 UTC 02 August 2014)
found at http://aviationweather.gov/adds/metars/
 
METAR text: KOMN 012250Z 14010KT 7SM SKC 29/24 A2995 RMK LAST
Conditions at: KOMN (ORMOND BEACH VOR, FL, US) observed 2250 UTC 01 August 2014
Temperature: 29.0°C (84°F)
Dewpoint: 24.0°C (75°F) [RH = 74%]
Pressure (altimeter): 29.95 inches Hg (1014.3 mb)
Winds: from the SE (140 degrees) at 12 MPH (10 knots; 5.2 m/s)
Visibility: 7 miles (11 km)
Ceiling: at least 12,000 feet AGL
Clouds: clear skies
Weather: no significant weather observed at this time
Translated TAF for KOMN

There is no translated TAF available for this airport

Find All Airport Services Find A Hotel Find A Rental Car Find A Golf Course Find A Restaurant $100 Hamburger



FBO's on the Field
FBO Company Facility Photos Services Transportation Aviation Fuel Prices: Prices include tax
Catering Weather Repair Courtesy Rental Type 100LL JetA JetA+ MOGAS 8087
 
Sunrise Aviation

Currently rated 1 by 2 people
FS:Shell
Last Updated: Jul-07
Login to update fuel prices
SS:
Contact Sunrise AviationMore FBO Information
 
Add another FBO Facility Photos Catering Weather Repair Courtesy Rental Type 100LL JetA JetA+ MOGAS 8087
Services Transportation Aviation Fuel Prices: Prices include tax


GlobalAir.com Airport Resource Center model-print
model-print
model-print
model-print